Air Navigation Services of Czech Republic
Airport: LKCV Updated:  22.11.2017 10:08:05  UTC
 METAR LKCV 22.11. 10:00 ...
METAR LKCV 221000Z 25013KT CAVOK 10/05 Q1012 NOSIG=
 TAF LKCV 22.11. 05:00 ...
TAF LKCV 220500Z 2206/2306 25008KT 9999 BKN030      BECMG 2207/2209 CAVOK      TEMPO 2207/2215 SCT030      BECMG 2220/2222 15004KT      PROB40 TEMPO 2221/2306 4000 BR=